Terminal Aerodrome Forecast
Issued by NWS North Platte, NE

Home | Current Version | Previous Version | Text Only | Print | Product List | Glossary On
Versions: 1 2 3 4 5 6 7 8 9 10 11 12 13 14 15 16 17 18 19 20
000
FTUS43 KLBF 210520
TAFLBF
TAF
KLBF 210520Z 2106/2206 12007KT P6SM SKC
     FM210900 12007KT P6SM SKC WS015/16035KT
     FM211400 14008KT P6SM FEW250
     FM211700 16013G20KT P6SM SKC
     FM220100 14010KT P6SM SKC=

USA.gov is the U.S. government's official web portal to all federal, state and local government web resources and services.